sensor_id;sensor_type;location;lat;lon;timestamp;temperature;humidity
25933;DHT22;13731;51.166;4.474;2023-07-31T00:01:54;17.00;99.90
25933;DHT22;13731;51.166;4.474;2023-07-31T00:04:19;17.10;99.90
25933;DHT22;13731;51.166;4.474;2023-07-31T00:06:45;17.10;99.90
25933;DHT22;13731;51.166;4.474;2023-07-31T00:09:11;17.10;99.90
25933;DHT22;13731;51.166;4.474;2023-07-31T00:11:37;17.20;99.90
25933;DHT22;13731;51.166;4.474;2023-07-31T00:14:02;17.10;99.90
25933;DHT22;13731;51.166;4.474;2023-07-31T00:16:28;17.00;99.90
25933;DHT22;13731;51.166;4.474;2023-07-31T00:18:54;17.00;99.90
25933;DHT22;13731;51.166;4.474;2023-07-31T00:21:20;16.90;99.90
25933;DHT22;13731;51.166;4.474;2023-07-31T00:23:45;17.00;99.90
25933;DHT22;13731;51.166;4.474;2023-07-31T00:26:11;17.10;99.90
25933;DHT22;13731;51.166;4.474;2023-07-31T00:28:37;17.10;99.90
25933;DHT22;13731;51.166;4.474;2023-07-31T00:31:03;17.00;99.90
25933;DHT22;13731;51.166;4.474;2023-07-31T00:33:31;17.00;99.90
25933;DHT22;13731;51.166;4.474;2023-07-31T00:35:57;17.00;99.90
25933;DHT22;13731;51.166;4.474;2023-07-31T00:38:25;17.10;99.90
25933;DHT22;13731;51.166;4.474;2023-07-31T00:40:51;17.00;99.90
25933;DHT22;13731;51.166;4.474;2023-07-31T00:43:16;17.00;99.90
25933;DHT22;13731;51.166;4.474;2023-07-31T00:45:42;17.00;99.90
25933;DHT22;13731;51.166;4.474;2023-07-31T00:48:08;17.00;99.90
25933;DHT22;13731;51.166;4.474;2023-07-31T00:50:34;17.20;99.90
25933;DHT22;13731;51.166;4.474;2023-07-31T00:53:00;17.10;99.90
25933;DHT22;13731;51.166;4.474;2023-07-31T00:55:26;17.00;99.90
25933;DHT22;13731;51.166;4.474;2023-07-31T00:57:52;17.10;99.90
25933;DHT22;13731;51.166;4.474;2023-07-31T01:00:18;17.20;99.90
25933;DHT22;13731;51.166;4.474;2023-07-31T01:02:44;17.20;99.90
25933;DHT22;13731;51.166;4.474;2023-07-31T01:05:10;17.30;99.90
25933;DHT22;13731;51.166;4.474;2023-07-31T01:07:51;17.30;99.90
25933;DHT22;13731;51.166;4.474;2023-07-31T01:10:21;17.30;99.90
25933;DHT22;13731;51.166;4.474;2023-07-31T01:12:50;17.20;1.00
25933;DHT22;13731;51.166;4.474;2023-07-31T01:15:16;17.10;1.00
25933;DHT22;13731;51.166;4.474;2023-07-31T01:17:43;17.10;16.80
25933;DHT22;13731;51.166;4.474;2023-07-31T01:20:13;17.10;1.00
25933;DHT22;13731;51.166;4.474;2023-07-31T01:28:13;17.20;99.90
25933;DHT22;13731;51.166;4.474;2023-07-31T01:30:43;17.30;99.90
25933;DHT22;13731;51.166;4.474;2023-07-31T01:33:10;17.20;1.00
25933;DHT22;13731;51.166;4.474;2023-07-31T01:35:36;17.10;1.00
25933;DHT22;13731;51.166;4.474;2023-07-31T01:38:02;17.20;1.00
25933;DHT22;13731;51.166;4.474;2023-07-31T01:40:28;17.20;1.00
25933;DHT22;13731;51.166;4.474;2023-07-31T01:42:54;17.30;1.00
25933;DHT22;13731;51.166;4.474;2023-07-31T01:45:20;17.40;99.90
25933;DHT22;13731;51.166;4.474;2023-07-31T01:47:45;17.30;99.90
25933;DHT22;13731;51.166;4.474;2023-07-31T01:50:11;17.40;99.90
25933;DHT22;13731;51.166;4.474;2023-07-31T01:52:37;17.30;1.00
25933;DHT22;13731;51.166;4.474;2023-07-31T01:55:03;17.40;99.90
25933;DHT22;13731;51.166;4.474;2023-07-31T01:57:29;17.40;99.90
25933;DHT22;13731;51.166;4.474;2023-07-31T01:59:55;17.50;39.40
25933;DHT22;13731;51.166;4.474;2023-07-31T02:02:21;17.50;99.90
25933;DHT22;13731;51.166;4.474;2023-07-31T02:04:48;17.40;99.90
25933;DHT22;13731;51.166;4.474;2023-07-31T02:07:14;17.40;99.90
25933;DHT22;13731;51.166;4.474;2023-07-31T02:09:40;17.40;99.90
25933;DHT22;13731;51.166;4.474;2023-07-31T02:12:06;17.50;1.00
25933;DHT22;13731;51.166;4.474;2023-07-31T02:14:34;17.40;1.00
25933;DHT22;13731;51.166;4.474;2023-07-31T02:17:00;17.20;99.90
25933;DHT22;13731;51.166;4.474;2023-07-31T02:19:26;17.30;99.90
25933;DHT22;13731;51.166;4.474;2023-07-31T02:21:52;17.20;1.00
25933;DHT22;13731;51.166;4.474;2023-07-31T02:24:18;17.20;99.90
25933;DHT22;13731;51.166;4.474;2023-07-31T02:26:43;17.20;1.00
25933;DHT22;13731;51.166;4.474;2023-07-31T02:29:09;17.20;99.90
25933;DHT22;13731;51.166;4.474;2023-07-31T02:31:35;17.20;1.00
25933;DHT22;13731;51.166;4.474;2023-07-31T02:34:01;17.20;1.00
25933;DHT22;13731;51.166;4.474;2023-07-31T02:36:26;17.40;99.90
25933;DHT22;13731;51.166;4.474;2023-07-31T02:38:52;17.40;99.90
25933;DHT22;13731;51.166;4.474;2023-07-31T02:41:18;17.40;99.90
25933;DHT22;13731;51.166;4.474;2023-07-31T02:43:43;17.40;99.90
25933;DHT22;13731;51.166;4.474;2023-07-31T02:46:09;17.40;1.00
25933;DHT22;13731;51.166;4.474;2023-07-31T02:48:35;17.30;99.90
25933;DHT22;13731;51.166;4.474;2023-07-31T02:51:01;17.50;85.60
25933;DHT22;13731;51.166;4.474;2023-07-31T02:53:26;17.50;99.90
25933;DHT22;13731;51.166;4.474;2023-07-31T02:55:52;17.60;1.00
25933;DHT22;13731;51.166;4.474;2023-07-31T02:58:18;17.60;1.00
25933;DHT22;13731;51.166;4.474;2023-07-31T03:00:44;17.60;1.00
25933;DHT22;13731;51.166;4.474;2023-07-31T03:03:10;17.60;1.00
25933;DHT22;13731;51.166;4.474;2023-07-31T03:05:36;17.60;11.50
25933;DHT22;13731;51.166;4.474;2023-07-31T03:08:03;17.60;99.90
25933;DHT22;13731;51.166;4.474;2023-07-31T03:10:29;17.60;99.90
25933;DHT22;13731;51.166;4.474;2023-07-31T03:12:55;17.60;99.90
25933;DHT22;13731;51.166;4.474;2023-07-31T03:15:21;17.50;1.00
25933;DHT22;13731;51.166;4.474;2023-07-31T03:17:47;17.50;89.70
25933;DHT22;13731;51.166;4.474;2023-07-31T03:20:12;17.60;99.90
25933;DHT22;13731;51.166;4.474;2023-07-31T03:22:38;17.70;1.00
25933;DHT22;13731;51.166;4.474;2023-07-31T03:25:04;17.70;1.00
25933;DHT22;13731;51.166;4.474;2023-07-31T03:27:30;17.70;1.00
25933;DHT22;13731;51.166;4.474;2023-07-31T03:29:56;17.70;99.90
25933;DHT22;13731;51.166;4.474;2023-07-31T03:32:22;17.60;99.90
25933;DHT22;13731;51.166;4.474;2023-07-31T03:34:49;17.60;1.00
25933;DHT22;13731;51.166;4.474;2023-07-31T03:37:15;17.60;1.00
25933;DHT22;13731;51.166;4.474;2023-07-31T03:39:40;17.50;99.90
25933;DHT22;13731;51.166;4.474;2023-07-31T03:42:06;17.60;99.90
25933;DHT22;13731;51.166;4.474;2023-07-31T03:44:32;17.70;1.00
25933;DHT22;13731;51.166;4.474;2023-07-31T03:46:57;17.80;39.20
25933;DHT22;13731;51.166;4.474;2023-07-31T03:49:23;17.90;1.00
25933;DHT22;13731;51.166;4.474;2023-07-31T03:51:49;17.80;1.00
25933;DHT22;13731;51.166;4.474;2023-07-31T03:54:15;17.90;1.00
25933;DHT22;13731;51.166;4.474;2023-07-31T03:56:41;17.80;19.30
25933;DHT22;13731;51.166;4.474;2023-07-31T03:59:06;17.70;1.00
25933;DHT22;13731;51.166;4.474;2023-07-31T04:01:32;17.70;1.00
25933;DHT22;13731;51.166;4.474;2023-07-31T04:03:58;17.70;99.90
25933;DHT22;13731;51.166;4.474;2023-07-31T04:06:23;17.50;99.90
25933;DHT22;13731;51.166;4.474;2023-07-31T04:08:49;17.30;99.90
25933;DHT22;13731;51.166;4.474;2023-07-31T04:11:15;17.10;1.00
25933;DHT22;13731;51.166;4.474;2023-07-31T04:13:41;17.10;1.00
25933;DHT22;13731;51.166;4.474;2023-07-31T04:16:06;17.10;1.70
25933;DHT22;13731;51.166;4.474;2023-07-31T04:18:32;17.00;1.00
25933;DHT22;13731;51.166;4.474;2023-07-31T04:20:58;17.10;1.00
25933;DHT22;13731;51.166;4.474;2023-07-31T04:23:24;17.00;97.60
25933;DHT22;13731;51.166;4.474;2023-07-31T04:25:50;16.90;99.90
25933;DHT22;13731;51.166;4.474;2023-07-31T04:28:16;16.80;99.90
25933;DHT22;13731;51.166;4.474;2023-07-31T04:30:42;16.90;99.90
25933;DHT22;13731;51.166;4.474;2023-07-31T04:33:08;16.90;99.90
25933;DHT22;13731;51.166;4.474;2023-07-31T04:35:33;16.90;99.90
25933;DHT22;13731;51.166;4.474;2023-07-31T04:37:59;16.80;99.90
25933;DHT22;13731;51.166;4.474;2023-07-31T04:40:25;16.80;99.90
25933;DHT22;13731;51.166;4.474;2023-07-31T04:42:51;16.80;99.90
25933;DHT22;13731;51.166;4.474;2023-07-31T04:45:17;16.70;99.90
25933;DHT22;13731;51.166;4.474;2023-07-31T04:47:42;16.70;99.90
25933;DHT22;13731;51.166;4.474;2023-07-31T04:50:08;16.70;99.90
25933;DHT22;13731;51.166;4.474;2023-07-31T04:52:34;16.70;99.90
25933;DHT22;13731;51.166;4.474;2023-07-31T04:55:00;16.70;99.90
25933;DHT22;13731;51.166;4.474;2023-07-31T04:57:26;16.70;99.90
25933;DHT22;13731;51.166;4.474;2023-07-31T04:59:51;16.70;99.90
25933;DHT22;13731;51.166;4.474;2023-07-31T05:02:17;16.80;99.90
25933;DHT22;13731;51.166;4.474;2023-07-31T05:04:43;16.80;99.90
25933;DHT22;13731;51.166;4.474;2023-07-31T05:07:09;16.80;99.90
25933;DHT22;13731;51.166;4.474;2023-07-31T05:09:34;16.80;99.90
25933;DHT22;13731;51.166;4.474;2023-07-31T05:12:00;16.80;99.90
25933;DHT22;13731;51.166;4.474;2023-07-31T05:14:26;16.80;99.90
25933;DHT22;13731;51.166;4.474;2023-07-31T05:16:51;16.80;99.90
25933;DHT22;13731;51.166;4.474;2023-07-31T05:19:18;16.90;99.90
25933;DHT22;13731;51.166;4.474;2023-07-31T05:21:43;16.80;99.90
25933;DHT22;13731;51.166;4.474;2023-07-31T05:24:10;16.80;99.90
25933;DHT22;13731;51.166;4.474;2023-07-31T05:26:36;16.90;99.90
25933;DHT22;13731;51.166;4.474;2023-07-31T05:29:03;17.00;99.90
25933;DHT22;13731;51.166;4.474;2023-07-31T05:31:29;16.90;99.90
25933;DHT22;13731;51.166;4.474;2023-07-31T05:33:55;16.90;99.90
25933;DHT22;13731;51.166;4.474;2023-07-31T05:36:20;16.80;99.90
25933;DHT22;13731;51.166;4.474;2023-07-31T05:38:46;16.80;99.90
25933;DHT22;13731;51.166;4.474;2023-07-31T05:41:12;16.90;99.90
25933;DHT22;13731;51.166;4.474;2023-07-31T05:43:38;16.80;99.90
25933;DHT22;13731;51.166;4.474;2023-07-31T05:46:04;16.90;99.90
25933;DHT22;13731;51.166;4.474;2023-07-31T05:48:30;16.70;99.90
25933;DHT22;13731;51.166;4.474;2023-07-31T05:50:56;16.80;99.90
25933;DHT22;13731;51.166;4.474;2023-07-31T05:53:22;16.70;99.90
25933;DHT22;13731;51.166;4.474;2023-07-31T05:55:47;16.60;99.90
25933;DHT22;13731;51.166;4.474;2023-07-31T05:58:13;16.80;99.90
25933;DHT22;13731;51.166;4.474;2023-07-31T06:00:39;16.80;99.90
25933;DHT22;13731;51.166;4.474;2023-07-31T06:03:05;16.80;99.90
25933;DHT22;13731;51.166;4.474;2023-07-31T06:05:30;16.80;99.90
25933;DHT22;13731;51.166;4.474;2023-07-31T06:07:56;16.80;99.90
25933;DHT22;13731;51.166;4.474;2023-07-31T06:10:22;16.80;99.90
25933;DHT22;13731;51.166;4.474;2023-07-31T06:12:48;16.80;99.90
25933;DHT22;13731;51.166;4.474;2023-07-31T06:15:14;16.60;99.90
25933;DHT22;13731;51.166;4.474;2023-07-31T06:17:39;16.70;99.90
25933;DHT22;13731;51.166;4.474;2023-07-31T06:20:06;16.80;99.90
25933;DHT22;13731;51.166;4.474;2023-07-31T06:22:32;16.90;99.90
25933;DHT22;13731;51.166;4.474;2023-07-31T06:24:58;16.90;99.90
25933;DHT22;13731;51.166;4.474;2023-07-31T06:27:24;17.00;99.90
25933;DHT22;13731;51.166;4.474;2023-07-31T06:29:50;17.10;99.90
25933;DHT22;13731;51.166;4.474;2023-07-31T06:32:15;17.10;99.90
25933;DHT22;13731;51.166;4.474;2023-07-31T06:34:41;17.00;99.90
25933;DHT22;13731;51.166;4.474;2023-07-31T06:37:07;17.10;99.90
25933;DHT22;13731;51.166;4.474;2023-07-31T06:39:32;17.00;99.90
25933;DHT22;13731;51.166;4.474;2023-07-31T06:41:58;17.00;99.90
25933;DHT22;13731;51.166;4.474;2023-07-31T06:44:24;17.00;99.90
25933;DHT22;13731;51.166;4.474;2023-07-31T06:46:50;17.10;99.90
25933;DHT22;13731;51.166;4.474;2023-07-31T06:49:16;17.20;99.90
25933;DHT22;13731;51.166;4.474;2023-07-31T06:51:41;17.40;99.90
25933;DHT22;13731;51.166;4.474;2023-07-31T06:54:08;17.30;99.90
25933;DHT22;13731;51.166;4.474;2023-07-31T06:56:34;17.30;99.90
25933;DHT22;13731;51.166;4.474;2023-07-31T06:59:00;17.30;99.90
25933;DHT22;13731;51.166;4.474;2023-07-31T07:01:26;17.20;99.90
25933;DHT22;13731;51.166;4.474;2023-07-31T07:03:51;17.10;99.90
25933;DHT22;13731;51.166;4.474;2023-07-31T07:06:17;17.10;99.90
25933;DHT22;13731;51.166;4.474;2023-07-31T07:08:43;17.10;99.90
25933;DHT22;13731;51.166;4.474;2023-07-31T07:11:09;17.10;99.90
25933;DHT22;13731;51.166;4.474;2023-07-31T07:13:35;17.10;99.90
25933;DHT22;13731;51.166;4.474;2023-07-31T07:16:00;17.10;99.90
25933;DHT22;13731;51.166;4.474;2023-07-31T07:18:26;17.10;99.90
25933;DHT22;13731;51.166;4.474;2023-07-31T07:20:53;17.20;99.90
25933;DHT22;13731;51.166;4.474;2023-07-31T07:23:19;17.20;99.90
25933;DHT22;13731;51.166;4.474;2023-07-31T07:25:45;17.20;99.90
25933;DHT22;13731;51.166;4.474;2023-07-31T07:28:11;17.10;99.90
25933;DHT22;13731;51.166;4.474;2023-07-31T07:30:37;17.10;99.90
25933;DHT22;13731;51.166;4.474;2023-07-31T07:33:02;17.10;99.90
25933;DHT22;13731;51.166;4.474;2023-07-31T07:35:28;17.10;99.90
25933;DHT22;13731;51.166;4.474;2023-07-31T07:37:54;17.10;99.90
25933;DHT22;13731;51.166;4.474;2023-07-31T07:40:20;17.10;99.90
25933;DHT22;13731;51.166;4.474;2023-07-31T07:42:46;17.10;99.90
25933;DHT22;13731;51.166;4.474;2023-07-31T07:45:12;17.30;99.90
25933;DHT22;13731;51.166;4.474;2023-07-31T07:47:40;17.30;99.90
25933;DHT22;13731;51.166;4.474;2023-07-31T07:50:06;17.20;99.90
25933;DHT22;13731;51.166;4.474;2023-07-31T07:52:32;17.20;99.90
25933;DHT22;13731;51.166;4.474;2023-07-31T07:54:58;17.30;99.90
25933;DHT22;13731;51.166;4.474;2023-07-31T07:57:24;17.30;99.90
25933;DHT22;13731;51.166;4.474;2023-07-31T07:59:49;17.50;99.90
25933;DHT22;13731;51.166;4.474;2023-07-31T08:02:15;17.60;99.90
25933;DHT22;13731;51.166;4.474;2023-07-31T08:04:41;17.80;99.90
25933;DHT22;13731;51.166;4.474;2023-07-31T08:07:06;18.10;99.90
25933;DHT22;13731;51.166;4.474;2023-07-31T08:09:32;18.60;99.90
25933;DHT22;13731;51.166;4.474;2023-07-31T08:11:58;19.00;99.90
25933;DHT22;13731;51.166;4.474;2023-07-31T08:14:27;18.90;99.90
25933;DHT22;13731;51.166;4.474;2023-07-31T08:16:53;18.90;99.90
25933;DHT22;13731;51.166;4.474;2023-07-31T08:19:19;19.00;99.90
25933;DHT22;13731;51.166;4.474;2023-07-31T08:21:45;18.90;99.90
25933;DHT22;13731;51.166;4.474;2023-07-31T08:24:11;18.70;99.90
25933;DHT22;13731;51.166;4.474;2023-07-31T08:26:36;18.60;99.90
25933;DHT22;13731;51.166;4.474;2023-07-31T08:29:02;18.50;99.90
25933;DHT22;13731;51.166;4.474;2023-07-31T08:31:28;18.50;99.90
25933;DHT22;13731;51.166;4.474;2023-07-31T08:33:55;18.60;99.90
25933;DHT22;13731;51.166;4.474;2023-07-31T08:36:20;18.70;99.90
25933;DHT22;13731;51.166;4.474;2023-07-31T08:38:46;18.90;99.90
25933;DHT22;13731;51.166;4.474;2023-07-31T08:41:12;18.60;99.90
25933;DHT22;13731;51.166;4.474;2023-07-31T08:43:44;18.50;99.90
25933;DHT22;13731;51.166;4.474;2023-07-31T08:46:10;18.70;99.90
25933;DHT22;13731;51.166;4.474;2023-07-31T08:48:36;18.70;99.90
25933;DHT22;13731;51.166;4.474;2023-07-31T08:51:03;18.50;99.90
25933;DHT22;13731;51.166;4.474;2023-07-31T08:53:29;18.60;99.90
25933;DHT22;13731;51.166;4.474;2023-07-31T08:55:55;18.60;99.90
25933;DHT22;13731;51.166;4.474;2023-07-31T08:58:22;18.70;99.90
25933;DHT22;13731;51.166;4.474;2023-07-31T09:00:49;18.50;99.90
25933;DHT22;13731;51.166;4.474;2023-07-31T09:03:17;18.60;99.90
25933;DHT22;13731;51.166;4.474;2023-07-31T09:05:43;18.60;99.90
25933;DHT22;13731;51.166;4.474;2023-07-31T09:08:10;18.80;99.90
25933;DHT22;13731;51.166;4.474;2023-07-31T09:10:42;19.10;99.90
25933;DHT22;13731;51.166;4.474;2023-07-31T09:13:09;19.30;99.90
25933;DHT22;13731;51.166;4.474;2023-07-31T09:15:35;19.60;99.90
25933;DHT22;13731;51.166;4.474;2023-07-31T09:18:02;19.90;99.90
25933;DHT22;13731;51.166;4.474;2023-07-31T09:20:28;20.10;1.00
25933;DHT22;13731;51.166;4.474;2023-07-31T09:22:54;20.20;1.00
25933;DHT22;13731;51.166;4.474;2023-07-31T09:25:21;20.00;1.00
25933;DHT22;13731;51.166;4.474;2023-07-31T09:27:54;19.90;99.90
25933;DHT22;13731;51.166;4.474;2023-07-31T09:30:20;20.00;1.00
25933;DHT22;13731;51.166;4.474;2023-07-31T09:32:47;20.10;99.90
25933;DHT22;13731;51.166;4.474;2023-07-31T09:35:13;20.30;99.90
25933;DHT22;13731;51.166;4.474;2023-07-31T09:37:41;20.20;99.90
25933;DHT22;13731;51.166;4.474;2023-07-31T09:40:07;20.20;99.90
25933;DHT22;13731;51.166;4.474;2023-07-31T09:42:33;20.50;99.90
25933;DHT22;13731;51.166;4.474;2023-07-31T09:45:09;20.90;1.00
25933;DHT22;13731;51.166;4.474;2023-07-31T09:47:35;20.90;1.00
25933;DHT22;13731;51.166;4.474;2023-07-31T09:50:01;20.80;99.90
25933;DHT22;13731;51.166;4.474;2023-07-31T09:52:26;20.60;1.00
25933;DHT22;13731;51.166;4.474;2023-07-31T09:54:55;20.70;1.00
25933;DHT22;13731;51.166;4.474;2023-07-31T09:57:21;20.80;99.90
25933;DHT22;13731;51.166;4.474;2023-07-31T09:59:48;20.60;1.00
25933;DHT22;13731;51.166;4.474;2023-07-31T10:02:15;20.30;99.90
25933;DHT22;13731;51.166;4.474;2023-07-31T10:04:46;20.20;1.00
25933;DHT22;13731;51.166;4.474;2023-07-31T10:07:13;19.90;82.50
25933;DHT22;13731;51.166;4.474;2023-07-31T10:09:40;19.70;99.90
25933;DHT22;13731;51.166;4.474;2023-07-31T10:12:06;19.40;1.00
25933;DHT22;13731;51.166;4.474;2023-07-31T10:14:34;19.50;1.00
25933;DHT22;13731;51.166;4.474;2023-07-31T10:17:00;19.30;99.90
25933;DHT22;13731;51.166;4.474;2023-07-31T10:19:26;19.30;99.90
25933;DHT22;13731;51.166;4.474;2023-07-31T10:21:52;19.30;99.90
25933;DHT22;13731;51.166;4.474;2023-07-31T10:24:19;19.50;99.90
25933;DHT22;13731;51.166;4.474;2023-07-31T10:26:45;19.70;99.90
25933;DHT22;13731;51.166;4.474;2023-07-31T10:29:11;19.70;99.90
25933;DHT22;13731;51.166;4.474;2023-07-31T10:31:37;19.40;1.00
25933;DHT22;13731;51.166;4.474;2023-07-31T10:34:03;19.30;99.90
25933;DHT22;13731;51.166;4.474;2023-07-31T10:36:29;19.30;99.90
25933;DHT22;13731;51.166;4.474;2023-07-31T10:38:55;19.20;1.00
25933;DHT22;13731;51.166;4.474;2023-07-31T10:41:30;19.00;99.90
25933;DHT22;13731;51.166;4.474;2023-07-31T10:44:00;18.90;99.90
25933;DHT22;13731;51.166;4.474;2023-07-31T10:46:27;18.80;22.50
25933;DHT22;13731;51.166;4.474;2023-07-31T10:49:00;19.00;99.90
25933;DHT22;13731;51.166;4.474;2023-07-31T10:51:33;19.10;99.90
25933;DHT22;13731;51.166;4.474;2023-07-31T10:54:12;19.30;99.90
25933;DHT22;13731;51.166;4.474;2023-07-31T10:56:38;19.30;99.90
25933;DHT22;13731;51.166;4.474;2023-07-31T10:59:05;19.20;1.00
25933;DHT22;13731;51.166;4.474;2023-07-31T11:01:50;19.10;99.90
25933;DHT22;13731;51.166;4.474;2023-07-31T11:04:21;19.10;1.00
25933;DHT22;13731;51.166;4.474;2023-07-31T11:07:00;19.10;99.90
25933;DHT22;13731;51.166;4.474;2023-07-31T11:09:27;19.10;99.90
25933;DHT22;13731;51.166;4.474;2023-07-31T11:11:55;18.90;1.00
25933;DHT22;13731;51.166;4.474;2023-07-31T11:14:21;19.10;1.00
25933;DHT22;13731;51.166;4.474;2023-07-31T11:16:49;19.10;99.90
25933;DHT22;13731;51.166;4.474;2023-07-31T11:19:20;19.20;99.90
25933;DHT22;13731;51.166;4.474;2023-07-31T11:21:46;19.20;25.30
25933;DHT22;13731;51.166;4.474;2023-07-31T11:24:13;19.10;1.00
25933;DHT22;13731;51.166;4.474;2023-07-31T11:26:39;18.90;1.00
25933;DHT22;13731;51.166;4.474;2023-07-31T11:29:10;18.90;1.00
25933;DHT22;13731;51.166;4.474;2023-07-31T11:31:41;18.90;99.90
25933;DHT22;13731;51.166;4.474;2023-07-31T11:34:07;18.90;1.00
25933;DHT22;13731;51.166;4.474;2023-07-31T11:36:36;19.00;99.90
25933;DHT22;13731;51.166;4.474;2023-07-31T11:39:05;19.10;1.00
25933;DHT22;13731;51.166;4.474;2023-07-31T11:41:32;19.30;1.00
25933;DHT22;13731;51.166;4.474;2023-07-31T11:44:01;19.50;50.00
25933;DHT22;13731;51.166;4.474;2023-07-31T11:46:30;19.60;1.00
25933;DHT22;13731;51.166;4.474;2023-07-31T11:48:59;19.90;99.90
25933;DHT22;13731;51.166;4.474;2023-07-31T11:51:25;20.00;1.00
25933;DHT22;13731;51.166;4.474;2023-07-31T11:53:53;20.20;52.50
25933;DHT22;13731;51.166;4.474;2023-07-31T11:56:19;20.10;99.90
25933;DHT22;13731;51.166;4.474;2023-07-31T11:58:46;20.10;1.00
25933;DHT22;13731;51.166;4.474;2023-07-31T12:01:11;20.20;99.90
25933;DHT22;13731;51.166;4.474;2023-07-31T12:03:38;20.20;99.90
25933;DHT22;13731;51.166;4.474;2023-07-31T12:06:04;20.20;1.00
25933;DHT22;13731;51.166;4.474;2023-07-31T12:08:30;20.30;5.00
25933;DHT22;13731;51.166;4.474;2023-07-31T12:11:02;20.40;7.10
25933;DHT22;13731;51.166;4.474;2023-07-31T12:13:28;20.20;1.00
25933;DHT22;13731;51.166;4.474;2023-07-31T12:15:56;20.10;99.90
25933;DHT22;13731;51.166;4.474;2023-07-31T12:18:23;20.50;1.00
25933;DHT22;13731;51.166;4.474;2023-07-31T12:20:54;20.80;99.90
25933;DHT22;13731;51.166;4.474;2023-07-31T12:23:20;20.60;1.00
25933;DHT22;13731;51.166;4.474;2023-07-31T12:26:05;20.70;1.00
25933;DHT22;13731;51.166;4.474;2023-07-31T12:31:03;20.90;93.50
25933;DHT22;13731;51.166;4.474;2023-07-31T12:33:33;21.20;1.00
25933;DHT22;13731;51.166;4.474;2023-07-31T12:36:00;21.30;99.90
25933;DHT22;13731;51.166;4.474;2023-07-31T12:38:26;21.10;99.90
25933;DHT22;13731;51.166;4.474;2023-07-31T12:40:52;21.00;1.00
25933;DHT22;13731;51.166;4.474;2023-07-31T12:43:17;20.80;1.00
25933;DHT22;13731;51.166;4.474;2023-07-31T12:45:43;20.80;3.10
25933;DHT22;13731;51.166;4.474;2023-07-31T12:48:09;20.70;91.20
25933;DHT22;13731;51.166;4.474;2023-07-31T12:50:35;20.60;99.90
25933;DHT22;13731;51.166;4.474;2023-07-31T12:53:02;20.70;12.40
25933;DHT22;13731;51.166;4.474;2023-07-31T12:55:28;20.50;99.90
25933;DHT22;13731;51.166;4.474;2023-07-31T12:57:55;20.40;1.00
25933;DHT22;13731;51.166;4.474;2023-07-31T13:00:21;20.40;1.00
25933;DHT22;13731;51.166;4.474;2023-07-31T13:02:47;20.60;1.00
25933;DHT22;13731;51.166;4.474;2023-07-31T13:05:13;20.50;99.90
25933;DHT22;13731;51.166;4.474;2023-07-31T13:07:39;20.50;1.00
25933;DHT22;13731;51.166;4.474;2023-07-31T13:10:05;20.60;99.90
25933;DHT22;13731;51.166;4.474;2023-07-31T13:12:31;20.50;1.00
25933;DHT22;13731;51.166;4.474;2023-07-31T13:14:57;20.30;1.00
25933;DHT22;13731;51.166;4.474;2023-07-31T13:17:23;20.00;1.00
25933;DHT22;13731;51.166;4.474;2023-07-31T13:19:49;19.80;99.90
25933;DHT22;13731;51.166;4.474;2023-07-31T13:22:14;19.70;99.90
25933;DHT22;13731;51.166;4.474;2023-07-31T13:24:40;19.50;99.90
25933;DHT22;13731;51.166;4.474;2023-07-31T13:27:06;19.40;1.00
25933;DHT22;13731;51.166;4.474;2023-07-31T13:29:32;19.30;1.00
25933;DHT22;13731;51.166;4.474;2023-07-31T13:31:58;19.20;99.90
25933;DHT22;13731;51.166;4.474;2023-07-31T13:34:24;19.20;1.00
25933;DHT22;13731;51.166;4.474;2023-07-31T13:36:49;19.10;1.00
25933;DHT22;13731;51.166;4.474;2023-07-31T13:39:15;19.00;52.20
25933;DHT22;13731;51.166;4.474;2023-07-31T13:41:41;19.00;99.90
25933;DHT22;13731;51.166;4.474;2023-07-31T13:44:07;18.90;1.00
25933;DHT22;13731;51.166;4.474;2023-07-31T13:46:32;18.80;1.00
25933;DHT22;13731;51.166;4.474;2023-07-31T13:48:58;18.80;1.00
25933;DHT22;13731;51.166;4.474;2023-07-31T13:51:25;18.80;1.00
25933;DHT22;13731;51.166;4.474;2023-07-31T13:53:51;18.70;1.00
25933;DHT22;13731;51.166;4.474;2023-07-31T13:56:16;18.60;1.00
25933;DHT22;13731;51.166;4.474;2023-07-31T13:58:42;18.50;1.00
25933;DHT22;13731;51.166;4.474;2023-07-31T14:01:08;18.50;1.00
25933;DHT22;13731;51.166;4.474;2023-07-31T14:03:34;18.50;1.00
25933;DHT22;13731;51.166;4.474;2023-07-31T14:06:00;18.40;99.90
25933;DHT22;13731;51.166;4.474;2023-07-31T14:08:26;18.20;99.90
25933;DHT22;13731;51.166;4.474;2023-07-31T14:10:51;18.20;99.90
25933;DHT22;13731;51.166;4.474;2023-07-31T14:13:17;18.10;99.90
25933;DHT22;13731;51.166;4.474;2023-07-31T14:15:43;18.20;99.90
25933;DHT22;13731;51.166;4.474;2023-07-31T14:18:09;18.20;99.90
25933;DHT22;13731;51.166;4.474;2023-07-31T14:20:34;18.10;99.90
25933;DHT22;13731;51.166;4.474;2023-07-31T14:23:02;18.20;99.90
25933;DHT22;13731;51.166;4.474;2023-07-31T14:25:27;18.10;99.90
25933;DHT22;13731;51.166;4.474;2023-07-31T14:27:53;18.10;99.90
25933;DHT22;13731;51.166;4.474;2023-07-31T14:30:19;18.10;99.90
25933;DHT22;13731;51.166;4.474;2023-07-31T14:32:45;18.00;99.90
25933;DHT22;13731;51.166;4.474;2023-07-31T14:35:11;18.00;99.90
25933;DHT22;13731;51.166;4.474;2023-07-31T14:37:38;18.00;99.90
25933;DHT22;13731;51.166;4.474;2023-07-31T14:40:04;17.90;99.90
25933;DHT22;13731;51.166;4.474;2023-07-31T14:42:30;17.90;99.90
25933;DHT22;13731;51.166;4.474;2023-07-31T14:44:56;17.90;99.90
25933;DHT22;13731;51.166;4.474;2023-07-31T14:47:22;17.80;99.90
25933;DHT22;13731;51.166;4.474;2023-07-31T14:49:47;17.80;99.90
25933;DHT22;13731;51.166;4.474;2023-07-31T14:52:13;17.80;99.90
25933;DHT22;13731;51.166;4.474;2023-07-31T14:54:39;17.70;99.90
25933;DHT22;13731;51.166;4.474;2023-07-31T14:57:05;17.80;99.90
25933;DHT22;13731;51.166;4.474;2023-07-31T14:59:30;17.80;99.90
25933;DHT22;13731;51.166;4.474;2023-07-31T15:01:56;17.80;99.90
25933;DHT22;13731;51.166;4.474;2023-07-31T15:04:22;17.80;99.90
25933;DHT22;13731;51.166;4.474;2023-07-31T15:06:48;17.90;99.90
25933;DHT22;13731;51.166;4.474;2023-07-31T15:09:14;17.90;99.90
25933;DHT22;13731;51.166;4.474;2023-07-31T15:11:39;17.90;99.90
25933;DHT22;13731;51.166;4.474;2023-07-31T15:14:05;17.90;99.90
25933;DHT22;13731;51.166;4.474;2023-07-31T15:16:31;17.90;99.90
25933;DHT22;13731;51.166;4.474;2023-07-31T15:18:57;17.80;99.90
25933;DHT22;13731;51.166;4.474;2023-07-31T15:21:23;17.90;99.90
25933;DHT22;13731;51.166;4.474;2023-07-31T15:23:48;17.90;99.90
25933;DHT22;13731;51.166;4.474;2023-07-31T15:26:14;17.90;99.90
25933;DHT22;13731;51.166;4.474;2023-07-31T15:28:40;17.80;99.90
25933;DHT22;13731;51.166;4.474;2023-07-31T15:31:06;17.90;99.90
25933;DHT22;13731;51.166;4.474;2023-07-31T15:33:32;17.90;99.90
25933;DHT22;13731;51.166;4.474;2023-07-31T15:35:57;17.90;99.90
25933;DHT22;13731;51.166;4.474;2023-07-31T15:38:23;17.80;99.90